createdAt,value
2018-03-06T00:01:24.340Z,3.91
2018-03-06T00:03:50.134Z,3.84
2018-03-06T00:06:15.940Z,3.81
2018-03-06T00:08:41.742Z,3.84
2018-03-06T00:11:07.542Z,3.80
2018-03-06T00:13:33.355Z,3.83
2018-03-06T00:15:59.152Z,3.82
2018-03-06T00:18:24.943Z,3.85
2018-03-06T00:20:50.863Z,3.67
2018-03-06T00:23:16.656Z,3.75
2018-03-06T00:25:42.442Z,3.68
2018-03-06T00:28:08.440Z,3.60
2018-03-06T00:30:34.239Z,3.68
2018-03-06T00:33:00.032Z,3.49
2018-03-06T00:35:25.839Z,3.66
2018-03-06T00:37:51.640Z,3.54
2018-03-06T00:40:17.436Z,3.48
2018-03-06T00:42:43.395Z,3.45
2018-03-06T00:45:09.191Z,3.41
2018-03-06T00:47:34.987Z,3.45
2018-03-06T00:50:00.924Z,3.51
2018-03-06T00:52:26.731Z,3.45
2018-03-06T00:54:52.525Z,3.46
2018-03-06T00:57:18.567Z,3.43
2018-03-06T00:59:44.367Z,3.48
2018-03-06T01:02:10.158Z,3.44
2018-03-06T01:04:35.964Z,3.37
2018-03-06T01:07:01.762Z,3.42
2018-03-06T01:09:27.558Z,3.35
2018-03-06T01:11:53.391Z,3.29
2018-03-06T01:14:19.188Z,3.35
2018-03-06T01:16:44.995Z,3.32
2018-03-06T01:19:10.807Z,3.37
2018-03-06T01:21:36.588Z,3.30
2018-03-06T01:24:02.384Z,3.22
2018-03-06T01:26:28.578Z,3.20
2018-03-06T01:28:54.363Z,3.21
2018-03-06T01:31:20.167Z,3.17
2018-03-06T01:33:45.971Z,3.21
2018-03-06T01:36:11.767Z,3.14
2018-03-06T01:38:37.536Z,3.16
2018-03-06T01:41:03.372Z,3.15
2018-03-06T01:43:29.171Z,3.10
2018-03-06T01:45:54.957Z,3.06
2018-03-06T01:48:20.760Z,2.93
2018-03-06T01:50:46.576Z,3.00
2018-03-06T01:53:12.374Z,2.96
2018-03-06T01:55:38.166Z,2.92
2018-03-06T01:58:03.992Z,2.82
2018-03-06T02:00:29.796Z,2.87
2018-03-06T02:02:55.590Z,2.86
2018-03-06T02:05:21.411Z,2.81
2018-03-06T02:07:47.199Z,2.81
2018-03-06T02:10:13.010Z,2.69
2018-03-06T02:12:38.832Z,2.73
2018-03-06T02:15:04.633Z,2.70
2018-03-06T02:17:30.419Z,2.71
2018-03-06T02:19:56.222Z,2.61
2018-03-06T02:22:22.008Z,2.64
2018-03-06T02:24:47.798Z,2.57
2018-03-06T02:27:13.615Z,2.54
2018-03-06T02:29:39.396Z,2.57
2018-03-06T02:32:05.217Z,2.54
2018-03-06T02:34:31.023Z,2.58
2018-03-06T02:36:56.830Z,2.55
2018-03-06T02:39:22.824Z,2.54
2018-03-06T02:41:48.644Z,2.53
2018-03-06T02:44:14.448Z,2.50
2018-03-06T02:46:40.264Z,2.43
2018-03-06T02:49:06.059Z,2.41
2018-03-06T02:51:31.860Z,2.36
2018-03-06T02:53:58.048Z,2.30
2018-03-06T02:56:23.842Z,2.20
2018-03-06T02:58:49.638Z,2.20
2018-03-06T03:01:15.454Z,2.15
2018-03-06T03:03:41.243Z,2.16
2018-03-06T03:06:07.060Z,2.07
2018-03-06T03:08:32.869Z,2.07
2018-03-06T03:10:59.599Z,2.07
2018-03-06T03:13:25.440Z,1.99
2018-03-06T03:15:51.239Z,1.96
2018-03-06T03:18:17.031Z,1.94
2018-03-06T03:20:42.846Z,1.96
2018-03-06T03:23:08.643Z,1.90
2018-03-06T03:25:34.442Z,1.80
2018-03-06T03:28:00.625Z,1.80
2018-03-06T03:30:26.430Z,1.79
2018-03-06T03:32:52.216Z,1.78
2018-03-06T03:35:18.027Z,1.76
2018-03-06T03:37:43.807Z,1.73
2018-03-06T03:40:09.602Z,1.74
2018-03-06T03:42:35.540Z,1.79
2018-03-06T03:45:01.344Z,1.77
2018-03-06T03:47:27.132Z,1.77
2018-03-06T03:49:52.950Z,1.74
2018-03-06T03:52:19.663Z,1.61
2018-03-06T03:54:45.444Z,1.62
2018-03-06T03:57:12.177Z,1.62
2018-03-06T03:59:37.986Z,1.59
2018-03-06T04:02:03.808Z,1.61
2018-03-06T04:04:29.944Z,1.56
2018-03-06T04:06:55.755Z,1.57
2018-03-06T04:09:21.543Z,1.52
2018-03-06T04:11:47.338Z,1.54
2018-03-06T04:14:13.126Z,1.57
2018-03-06T04:16:40.198Z,1.50
2018-03-06T04:19:05.991Z,1.50
2018-03-06T04:21:31.783Z,1.49
2018-03-06T04:23:57.617Z,1.51
2018-03-06T04:26:23.371Z,1.49
2018-03-06T04:28:49.159Z,1.43
2018-03-06T04:31:15.175Z,1.47
2018-03-06T04:33:40.958Z,1.43
2018-03-06T04:36:06.747Z,1.31
2018-03-06T04:38:32.728Z,1.30
2018-03-06T04:40:58.638Z,1.36
2018-03-06T04:43:24.434Z,1.34
2018-03-06T04:45:50.403Z,1.39
2018-03-06T04:48:16.190Z,1.34
2018-03-06T04:50:41.979Z,1.36
2018-03-06T04:53:07.812Z,1.39
2018-03-06T04:55:33.611Z,1.42
2018-03-06T04:57:59.411Z,1.33
2018-03-06T05:00:25.511Z,1.31
2018-03-06T05:02:51.306Z,1.28
2018-03-06T05:05:17.100Z,1.24
2018-03-06T05:07:42.919Z,1.28
2018-03-06T05:10:08.711Z,1.44
2018-03-06T05:12:34.518Z,1.53
2018-03-06T05:15:00.330Z,1.54
2018-03-06T05:17:26.122Z,1.35
2018-03-06T05:19:51.915Z,1.37
2018-03-06T05:22:17.744Z,1.47
2018-03-06T05:24:43.539Z,1.39
2018-03-06T05:27:09.327Z,1.41
2018-03-06T05:29:35.323Z,1.30
2018-03-06T05:32:01.116Z,1.24
2018-03-06T05:34:26.908Z,1.31
2018-03-06T05:36:52.703Z,1.26
2018-03-06T05:39:18.524Z,1.21
2018-03-06T05:41:44.342Z,1.14
2018-03-06T05:44:10.136Z,1.20
2018-03-06T05:46:35.941Z,1.23
2018-03-06T05:49:01.763Z,1.15
2018-03-06T05:51:27.567Z,1.10
2018-03-06T05:53:53.371Z,1.06
2018-03-06T05:56:19.192Z,1.02
2018-03-06T05:58:44.975Z,1.04
2018-03-06T06:01:10.782Z,3.53
2018-03-06T06:03:36.562Z,2.94
2018-03-06T06:06:02.358Z,1.90
2018-03-06T06:08:28.159Z,1.49
2018-03-06T06:10:54.135Z,1.37
2018-03-06T06:13:19.937Z,1.30
2018-03-06T06:15:45.738Z,1.29
2018-03-06T06:18:11.538Z,1.17
2018-03-06T06:20:37.323Z,1.16
2018-03-06T06:23:03.428Z,1.05
2018-03-06T06:25:29.232Z,1.27
2018-03-06T06:27:55.035Z,1.14
2018-03-06T06:30:20.831Z,1.08
2018-03-06T06:32:46.644Z,1.03
2018-03-06T06:35:12.442Z,1.04
2018-03-06T06:37:38.223Z,1.08
2018-03-06T06:40:04.156Z,1.04
2018-03-06T06:42:29.939Z,1.07
2018-03-06T06:44:55.747Z,1.12
2018-03-06T06:47:21.547Z,1.19
2018-03-06T06:49:47.360Z,1.20
2018-03-06T06:52:13.156Z,1.21
2018-03-06T06:54:39.167Z,1.24
2018-03-06T06:57:04.956Z,1.24
2018-03-06T06:59:30.791Z,1.25
2018-03-06T07:01:56.735Z,1.25
2018-03-06T07:04:22.548Z,1.52
2018-03-06T07:06:48.309Z,1.96
2018-03-06T07:09:14.151Z,1.96
2018-03-06T07:11:39.936Z,1.85
2018-03-06T07:14:05.722Z,2.03
2018-03-06T07:16:31.535Z,2.01
2018-03-06T07:18:57.323Z,2.00
2018-03-06T07:21:23.118Z,1.95
2018-03-06T07:23:48.986Z,2.03
2018-03-06T07:26:14.753Z,1.94
2018-03-06T07:28:40.532Z,2.16
2018-03-06T07:31:06.347Z,2.30
2018-03-06T07:33:32.119Z,2.39
2018-03-06T07:35:57.906Z,2.35
2018-03-06T07:38:23.719Z,2.33
2018-03-06T07:40:49.515Z,2.42
2018-03-06T07:43:15.293Z,2.80
2018-03-06T07:45:41.098Z,2.88
2018-03-06T07:48:06.875Z,2.83
2018-03-06T07:50:32.650Z,2.96
2018-03-06T07:52:58.540Z,3.06
2018-03-06T07:55:24.331Z,3.04
2018-03-06T07:57:50.102Z,2.98
2018-03-06T08:00:15.891Z,3.12
2018-03-06T08:02:41.700Z,3.07
2018-03-06T08:05:08.292Z,3.12
2018-03-06T08:07:34.063Z,3.14
2018-03-06T08:09:59.871Z,3.21
2018-03-06T08:12:25.650Z,3.14
2018-03-06T08:14:51.425Z,3.29
2018-03-06T08:17:17.240Z,3.48
2018-03-06T08:19:43.018Z,3.49
2018-03-06T08:22:08.794Z,3.38
2018-03-06T08:24:34.956Z,3.55
2018-03-06T08:27:00.749Z,3.50
2018-03-06T08:29:26.535Z,3.60
2018-03-06T08:31:52.335Z,3.82
2018-03-06T08:34:18.145Z,3.86
2018-03-06T08:36:43.962Z,3.94
2018-03-06T08:39:09.751Z,3.98
2018-03-06T08:41:35.529Z,3.94
2018-03-06T08:44:01.340Z,4.07
2018-03-06T08:46:27.157Z,3.97
2018-03-06T08:48:52.948Z,3.98
2018-03-06T08:51:18.762Z,3.89
2018-03-06T08:53:44.555Z,4.09
2018-03-06T08:56:10.340Z,4.02
2018-03-06T08:58:36.133Z,3.88
2018-03-06T09:01:01.912Z,3.84
2018-03-06T09:03:27.732Z,3.87
2018-03-06T09:05:53.798Z,3.99
2018-03-06T09:08:19.597Z,3.89
2018-03-06T09:10:45.372Z,3.92
2018-03-06T09:13:11.168Z,4.08
2018-03-06T09:15:36.974Z,4.20
2018-03-06T09:18:02.777Z,4.29
2018-03-06T09:20:28.560Z,4.31
2018-03-06T09:22:54.347Z,4.38
2018-03-06T09:25:20.138Z,4.50
2018-03-06T09:27:45.944Z,4.58
2018-03-06T09:30:11.723Z,4.73
2018-03-06T09:32:37.515Z,4.73
2018-03-06T09:35:03.346Z,4.70
2018-03-06T09:37:29.161Z,4.60
2018-03-06T09:39:54.954Z,4.72
2018-03-06T09:42:20.755Z,4.80
2018-03-06T09:44:46.866Z,4.87
2018-03-06T09:47:12.674Z,4.98
2018-03-06T09:49:38.614Z,5.00
2018-03-06T09:52:08.306Z,4.96
2018-03-06T09:54:34.154Z,5.01
2018-03-06T09:57:00.824Z,5.13
2018-03-06T09:59:26.726Z,5.41
2018-03-06T10:01:52.519Z,5.54
2018-03-06T10:04:18.319Z,5.64
2018-03-06T10:06:44.166Z,5.52
2018-03-06T10:09:09.977Z,5.56
2018-03-06T10:11:35.791Z,5.65
2018-03-06T10:14:01.607Z,5.60
2018-03-06T10:16:27.411Z,5.56
2018-03-06T10:18:53.317Z,5.64
2018-03-06T10:21:19.197Z,5.65
2018-03-06T10:23:45.117Z,5.72
2018-03-06T10:26:10.936Z,5.77
2018-03-06T10:28:36.736Z,5.80
2018-03-06T10:31:02.611Z,5.82
2018-03-06T10:33:28.446Z,6.10
2018-03-06T10:35:54.264Z,6.09
2018-03-06T10:38:20.399Z,6.22
2018-03-06T10:40:46.233Z,6.15
2018-03-06T10:43:12.023Z,6.23
2018-03-06T10:45:37.819Z,6.21
2018-03-06T10:48:03.652Z,6.28
2018-03-06T10:50:29.476Z,6.50
2018-03-06T10:52:55.259Z,6.53
2018-03-06T10:55:21.101Z,6.55
2018-03-06T10:57:46.900Z,6.64
2018-03-06T11:00:12.715Z,6.58
2018-03-06T11:02:41.511Z,6.53
2018-03-06T11:05:07.328Z,6.40
2018-03-06T11:07:33.111Z,6.49
2018-03-06T11:09:58.923Z,6.72
2018-03-06T11:12:25.065Z,6.76
2018-03-06T11:14:50.882Z,7.00
2018-03-06T11:17:16.667Z,6.85
2018-03-06T11:19:42.507Z,6.94
2018-03-06T11:22:08.315Z,6.94
2018-03-06T11:24:34.186Z,6.87
2018-03-06T11:27:00.995Z,6.83
2018-03-06T11:29:26.910Z,7.20
2018-03-06T11:31:52.708Z,7.12
2018-03-06T11:34:18.611Z,7.06
2018-03-06T11:36:44.709Z,6.96
2018-03-06T11:39:10.560Z,7.04
2018-03-06T11:41:36.384Z,7.08
2018-03-06T11:44:02.505Z,7.15
2018-03-06T11:46:28.299Z,7.05
2018-03-06T11:48:54.094Z,7.07
2018-03-06T11:51:20.187Z,7.13
2018-03-06T11:53:46.012Z,7.14
2018-03-06T11:56:11.807Z,7.31
2018-03-06T11:58:38.030Z,7.59
2018-03-06T12:01:03.835Z,8.49
2018-03-06T12:03:29.624Z,8.08
2018-03-06T12:05:55.582Z,7.67
2018-03-06T12:08:21.384Z,7.60
2018-03-06T12:10:47.755Z,7.72
2018-03-06T12:13:13.571Z,7.69
2018-03-06T12:15:39.393Z,7.75
2018-03-06T12:18:05.210Z,7.82
2018-03-06T12:20:31.007Z,7.94
2018-03-06T12:22:56.820Z,7.97
2018-03-06T12:25:22.603Z,7.85
2018-03-06T12:27:48.473Z,7.87
2018-03-06T12:30:14.287Z,8.15
2018-03-06T12:32:40.092Z,8.34
2018-03-06T12:35:06.795Z,8.42
2018-03-06T12:37:32.609Z,8.63
2018-03-06T12:39:58.446Z,8.76
2018-03-06T12:42:24.245Z,9.00
2018-03-06T12:44:50.426Z,9.34
2018-03-06T12:47:16.243Z,8.87
2018-03-06T12:49:42.039Z,9.19
2018-03-06T12:52:07.956Z,9.95
2018-03-06T12:54:34.791Z,9.79
2018-03-06T12:57:00.600Z,9.99
2018-03-06T12:59:26.398Z,10.23
2018-03-06T13:01:52.210Z,10.07
2018-03-06T13:04:18.043Z,10.16
2018-03-06T13:06:43.846Z,10.28
2018-03-06T13:09:09.651Z,10.16
2018-03-06T13:11:35.449Z,9.98
2018-03-06T13:14:01.259Z,10.32
2018-03-06T13:16:27.061Z,10.45
2018-03-06T13:18:52.907Z,10.47
2018-03-06T13:21:18.735Z,10.55
2018-03-06T13:23:44.552Z,10.30
2018-03-06T13:26:10.460Z,10.29
2018-03-06T13:28:36.471Z,10.92
2018-03-06T13:31:02.291Z,10.33
2018-03-06T13:33:28.115Z,10.07
2018-03-06T13:35:53.993Z,11.76
2018-03-06T13:38:19.849Z,10.52
2018-03-06T13:40:45.660Z,10.22
2018-03-06T13:43:11.468Z,10.53
2018-03-06T13:45:37.266Z,10.39
2018-03-06T13:48:03.136Z,9.75
2018-03-06T13:50:28.976Z,11.37
2018-03-06T13:52:54.828Z,10.96
2018-03-06T13:55:20.624Z,10.47
2018-03-06T13:57:46.410Z,10.41
2018-03-06T14:00:12.421Z,10.88
2018-03-06T14:02:38.270Z,10.61
2018-03-06T14:05:04.071Z,10.55
2018-03-06T14:07:29.895Z,10.52
2018-03-06T14:09:55.699Z,10.56
2018-03-06T14:12:21.495Z,11.09
2018-03-06T14:14:47.456Z,11.20
2018-03-06T14:17:13.272Z,11.23
2018-03-06T14:19:39.069Z,10.73
2018-03-06T14:22:04.943Z,10.28
2018-03-06T14:24:30.728Z,10.00
2018-03-06T14:26:57.977Z,9.75
2018-03-06T14:29:24.083Z,9.73
2018-03-06T14:31:49.882Z,11.17
2018-03-06T14:34:15.699Z,12.12
2018-03-06T14:36:42.468Z,11.37
2018-03-06T14:39:08.281Z,10.51
2018-03-06T14:41:34.108Z,9.98
2018-03-06T14:44:00.638Z,9.38
2018-03-06T14:46:26.551Z,9.31
2018-03-06T14:48:52.635Z,9.11
2018-03-06T14:51:19.515Z,9.09
2018-03-06T14:53:45.322Z,8.94
2018-03-06T14:56:11.137Z,8.98
2018-03-06T14:58:36.937Z,9.14
2018-03-06T15:01:02.748Z,9.03
2018-03-06T15:03:28.555Z,9.04
2018-03-06T15:05:54.346Z,8.86
2018-03-06T15:08:20.136Z,8.80
2018-03-06T15:10:46.266Z,8.62
2018-03-06T15:13:12.049Z,8.71
2018-03-06T15:15:37.840Z,8.62
2018-03-06T15:18:03.636Z,8.57
2018-03-06T15:20:29.431Z,8.50
2018-03-06T15:22:55.233Z,8.44
2018-03-06T15:25:21.012Z,8.47
2018-03-06T15:27:46.816Z,8.40
2018-03-06T15:30:12.627Z,8.34
2018-03-06T15:32:38.415Z,8.39
2018-03-06T15:35:04.203Z,8.37
2018-03-06T15:37:30.322Z,8.33
2018-03-06T15:39:56.101Z,8.29
2018-03-06T15:42:21.895Z,8.15
2018-03-06T15:44:47.707Z,8.12
2018-03-06T15:47:13.487Z,8.10
2018-03-06T15:49:39.271Z,7.99
2018-03-06T15:52:05.381Z,7.93
2018-03-06T15:54:31.205Z,7.96
2018-03-06T15:56:57.007Z,7.89
2018-03-06T15:59:22.811Z,7.74
2018-03-06T16:01:48.967Z,7.67
2018-03-06T16:04:14.747Z,7.61
2018-03-06T16:06:40.526Z,7.49
2018-03-06T16:09:06.325Z,7.48
2018-03-06T16:11:32.109Z,7.37
2018-03-06T16:13:57.887Z,7.31
2018-03-06T16:16:23.692Z,7.32
2018-03-06T16:18:49.479Z,7.16
2018-03-06T16:21:15.258Z,7.08
2018-03-06T16:23:41.068Z,7.01
2018-03-06T16:26:06.861Z,6.93
2018-03-06T16:28:32.638Z,7.24
2018-03-06T16:30:59.009Z,7.34
2018-03-06T16:33:24.790Z,7.28
2018-03-06T16:35:50.580Z,7.22
2018-03-06T16:38:16.391Z,7.21
2018-03-06T16:40:42.171Z,7.22
2018-03-06T16:43:08.507Z,7.17
2018-03-06T16:45:34.534Z,7.11
2018-03-06T16:48:00.319Z,7.00
2018-03-06T16:50:26.107Z,7.20
2018-03-06T16:52:51.940Z,7.16
2018-03-06T16:55:18.660Z,6.87
2018-03-06T16:57:44.447Z,6.69
2018-03-06T17:00:10.545Z,6.71
2018-03-06T17:02:36.332Z,6.54
2018-03-06T17:05:02.144Z,6.70
2018-03-06T17:07:27.949Z,6.69
2018-03-06T17:09:53.728Z,6.68
2018-03-06T17:12:19.498Z,6.61
2018-03-06T17:14:45.634Z,6.57
2018-03-06T17:17:11.477Z,6.57
2018-03-06T17:19:37.251Z,6.45
2018-03-06T17:22:03.076Z,6.36
2018-03-06T17:24:28.852Z,6.30
2018-03-06T17:26:54.634Z,6.21
2018-03-06T17:29:20.416Z,6.24
2018-03-06T17:31:46.192Z,6.38
2018-03-06T17:34:11.991Z,6.07
2018-03-06T17:36:37.778Z,5.96
2018-03-06T17:39:03.588Z,5.86
2018-03-06T17:41:29.380Z,5.77
2018-03-06T17:43:55.463Z,5.82
2018-03-06T17:46:21.263Z,5.64
2018-03-06T17:48:47.048Z,5.70
2018-03-06T17:51:12.857Z,5.73
2018-03-06T17:53:38.664Z,5.66
2018-03-06T17:56:04.480Z,5.52
2018-03-06T17:58:30.548Z,5.32
2018-03-06T18:00:56.353Z,5.53
2018-03-06T18:03:22.140Z,5.26
2018-03-06T18:05:47.956Z,5.26
2018-03-06T18:08:13.736Z,5.25
2018-03-06T18:10:39.540Z,5.35
2018-03-06T18:13:05.336Z,5.44
2018-03-06T18:15:31.129Z,5.35
2018-03-06T18:17:56.904Z,5.34
2018-03-06T18:20:22.967Z,5.21
2018-03-06T18:22:48.774Z,5.28
2018-03-06T18:25:14.564Z,5.17
2018-03-06T18:27:40.623Z,5.18
2018-03-06T18:30:06.425Z,5.02
2018-03-06T18:32:32.224Z,4.97
2018-03-06T18:34:58.034Z,4.77
2018-03-06T18:37:23.885Z,4.60
2018-03-06T18:39:49.664Z,4.51
2018-03-06T18:42:15.449Z,5.89
2018-03-06T18:44:41.227Z,4.89
2018-03-06T18:47:07.401Z,4.58
2018-03-06T18:49:33.216Z,4.47
2018-03-06T18:51:59.016Z,4.35
2018-03-06T18:54:24.855Z,4.31
2018-03-06T18:56:50.651Z,4.28
2018-03-06T18:59:16.493Z,4.21
2018-03-06T19:02:13.052Z,4.24
2018-03-06T19:07:38.853Z,4.18
2018-03-06T19:10:04.642Z,4.16
2018-03-06T19:12:30.447Z,4.12
2018-03-06T19:14:56.222Z,4.17
2018-03-06T19:17:22.008Z,4.13
2018-03-06T19:19:47.798Z,4.09
2018-03-06T19:22:13.590Z,4.03
2018-03-06T19:24:39.376Z,4.03
2018-03-06T19:27:05.196Z,4.01
2018-03-06T19:29:30.999Z,4.01
2018-03-06T19:31:56.788Z,4.00
2018-03-06T19:34:22.675Z,3.96
2018-03-06T19:36:48.466Z,3.91
2018-03-06T19:39:14.268Z,3.92
2018-03-06T19:41:40.400Z,3.88
2018-03-06T19:44:06.203Z,3.88
2018-03-06T19:46:31.992Z,3.86
2018-03-06T19:48:57.796Z,3.83
2018-03-06T19:51:23.579Z,3.82
2018-03-06T19:53:49.378Z,3.77
2018-03-06T19:56:15.176Z,3.82
2018-03-06T19:58:40.962Z,3.81
2018-03-06T20:01:06.744Z,3.83
2018-03-06T20:03:32.543Z,3.85
2018-03-06T20:05:58.330Z,3.79
2018-03-06T20:08:24.125Z,3.82
2018-03-06T20:10:49.955Z,3.77
2018-03-06T20:13:15.760Z,3.74
2018-03-06T20:15:41.687Z,3.71
2018-03-06T20:18:07.558Z,3.74
2018-03-06T20:20:33.390Z,3.77
2018-03-06T20:22:59.304Z,3.60
2018-03-06T20:25:31.256Z,3.60
2018-03-06T20:27:57.086Z,3.60
2018-03-06T20:30:28.944Z,3.64
2018-03-06T20:33:00.792Z,3.69
2018-03-06T20:35:26.596Z,3.60
2018-03-06T20:37:52.557Z,3.56
2018-03-06T20:40:24.440Z,3.57
2018-03-06T20:42:50.323Z,3.54
2018-03-06T20:45:16.106Z,3.42
2018-03-06T20:47:42.289Z,3.42
2018-03-06T20:50:08.103Z,3.46
2018-03-06T20:52:39.869Z,3.51
2018-03-06T20:55:06.765Z,7.13
2018-03-06T20:57:32.614Z,7.05
2018-03-06T20:59:58.559Z,5.24
2018-03-06T21:02:24.660Z,4.47
2018-03-06T21:04:50.722Z,6.92
2018-03-06T21:07:16.558Z,5.38
2018-03-06T21:09:42.483Z,4.55
2018-03-06T21:12:08.295Z,4.20
2018-03-06T21:14:34.131Z,3.95
2018-03-06T21:16:59.944Z,3.82
2018-03-06T21:19:25.786Z,3.80
2018-03-06T21:21:51.586Z,3.79
2018-03-06T21:24:17.412Z,3.67
2018-03-06T21:26:43.541Z,3.66
2018-03-06T21:29:09.382Z,3.54
2018-03-06T21:31:35.374Z,3.48
2018-03-06T21:34:01.181Z,3.42
2018-03-06T21:36:27.027Z,3.36
2018-03-06T21:38:52.848Z,3.37
2018-03-06T21:41:18.654Z,3.35
2018-03-06T21:43:44.468Z,3.37
2018-03-06T21:46:10.283Z,3.38
2018-03-06T21:48:36.069Z,3.38
2018-03-06T21:51:01.891Z,3.39
2018-03-06T21:53:27.711Z,3.40
2018-03-06T21:55:53.530Z,3.37
2018-03-06T21:58:21.159Z,3.28
2018-03-06T22:00:47.576Z,3.25
2018-03-06T22:03:13.389Z,3.25
2018-03-06T22:05:39.217Z,3.20
2018-03-06T22:08:05.053Z,3.20
2018-03-06T22:10:30.867Z,3.27
2018-03-06T22:12:56.662Z,3.25
2018-03-06T22:15:22.459Z,3.23
2018-03-06T22:17:48.308Z,3.18
2018-03-06T22:20:14.223Z,3.23
2018-03-06T22:22:40.025Z,3.30
2018-03-06T22:25:05.827Z,3.30
2018-03-06T22:27:31.636Z,3.28
2018-03-06T22:29:57.432Z,3.49
2018-03-06T22:32:23.219Z,3.64
2018-03-06T22:34:49.008Z,3.66
2018-03-06T22:37:14.780Z,3.61
2018-03-06T22:39:40.587Z,3.53
2018-03-06T22:42:06.391Z,3.58
2018-03-06T22:44:32.199Z,4.01
2018-03-06T22:46:58.016Z,3.90
2018-03-06T22:49:23.920Z,4.07
2018-03-06T22:51:49.721Z,4.57
2018-03-06T22:54:15.545Z,4.34
2018-03-06T22:56:41.348Z,4.22
2018-03-06T22:59:07.140Z,4.13
2018-03-06T23:01:33.528Z,4.15
2018-03-06T23:03:59.320Z,4.34
2018-03-06T23:06:25.132Z,4.03
2018-03-06T23:08:51.096Z,4.16
2018-03-06T23:11:17.688Z,4.04
2018-03-06T23:13:44.655Z,4.17
2018-03-06T23:16:10.506Z,4.13
2018-03-06T23:18:36.340Z,3.97
2018-03-06T23:21:02.158Z,4.12
2018-03-06T23:23:28.149Z,4.05
2018-03-06T23:25:53.977Z,3.89
2018-03-06T23:28:19.849Z,3.62
2018-03-06T23:30:46.084Z,3.54
2018-03-06T23:33:11.940Z,3.32
2018-03-06T23:35:37.748Z,3.31
2018-03-06T23:38:04.875Z,3.36
2018-03-06T23:40:32.869Z,3.41
2018-03-06T23:42:58.788Z,3.54
2018-03-06T23:45:24.813Z,3.49
2018-03-06T23:47:51.071Z,3.26
2018-03-06T23:50:16.929Z,3.29
2018-03-06T23:52:43.044Z,3.18
2018-03-06T23:55:08.835Z,3.20
2018-03-06T23:57:34.753Z,3.18
